Terminal Aerodrome Forecast
Issued by NWS

Home | Current Version | Previous Version | Text Only | Print | Product List | Glossary Off
Versions: 1 2 3 4 5 6 7 8 9 10 11 12 13 14

000
FTUS43 KFGF 240520
TAFBJI
TAF
KBJI 240520Z 2406/2506 VRB06KT P6SM BKN040
      TEMPO 2406/2407 -TSRA BKN025CB
     FM240900 26007KT P6SM SCT200
     FM241700 28013KT P6SM SCT200
     FM250300 28005KT P6SM FEW200=

USA.gov is the U.S. government's official web portal to all federal, state and local government web resources and services.